createdAt,value
2022-12-31T00:00:01.738Z,99.57
2022-12-31T00:01:01.722Z,99.06
2022-12-31T00:02:01.822Z,99.68
2022-12-31T00:03:01.814Z,99.68
2022-12-31T00:04:01.693Z,99.68
2022-12-31T00:05:01.690Z,99.47
2022-12-31T00:06:01.676Z,99.78
2022-12-31T00:07:01.706Z,99.78
2022-12-31T00:08:01.697Z,99.88
2022-12-31T00:09:01.648Z,99.78
2022-12-31T00:10:01.669Z,99.37
2022-12-31T00:11:01.615Z,99.99
2022-12-31T00:12:01.643Z,99.68
2022-12-31T00:13:01.611Z,99.78
2022-12-31T00:14:01.605Z,99.78
2022-12-31T00:15:01.586Z,99.63
2022-12-31T00:16:05.406Z,99.73
2022-12-31T00:17:02.664Z,99.68
2022-12-31T00:18:01.558Z,99.88
2022-12-31T00:19:01.552Z,99.99
2022-12-31T00:20:01.539Z,99.84
2022-12-31T00:21:01.560Z,99.63
2022-12-31T00:22:01.542Z,99.63
2022-12-31T00:23:01.493Z,99.43
2022-12-31T00:24:01.526Z,99.43
2022-12-31T00:25:01.487Z,99.84
2022-12-31T00:26:01.485Z,99.11
2022-12-31T00:27:01.473Z,99.63
2022-12-31T00:28:01.460Z,99.22
2022-12-31T00:29:01.452Z,98.91
2022-12-31T00:30:04.717Z,99.52
2022-12-31T00:31:02.488Z,99.52
2022-12-31T00:32:01.443Z,98.66
2022-12-31T00:33:01.442Z,99.52
2022-12-31T00:34:01.416Z,99.32
2022-12-31T00:35:01.400Z,99.02
2022-12-31T00:36:01.378Z,99.43
2022-12-31T00:37:02.234Z,99.38
2022-12-31T00:38:01.340Z,99.27
2022-12-31T00:39:01.347Z,99.27
2022-12-31T00:40:01.348Z,99.07
2022-12-31T00:41:01.323Z,99.38
2022-12-31T00:42:01.351Z,99.18
2022-12-31T00:43:01.305Z,98.56
2022-12-31T00:44:01.310Z,99.58
2022-12-31T00:45:01.390Z,98.86
2022-12-31T00:46:01.288Z,98.36
2022-12-31T00:47:01.293Z,98.97
2022-12-31T00:48:01.253Z,98.77
2022-12-31T00:49:01.279Z,98.97
2022-12-31T00:50:01.227Z,98.77
2022-12-31T00:51:01.232Z,98.86
2022-12-31T00:52:01.241Z,98.56
2022-12-31T00:53:01.206Z,98.77
2022-12-31T00:54:01.195Z,98.46
2022-12-31T00:55:01.191Z,98.56
2022-12-31T00:56:01.184Z,98.66
2022-12-31T00:57:01.188Z,98.72
2022-12-31T00:58:01.154Z,98.46
2022-12-31T00:59:01.149Z,98.41
2022-12-31T01:00:01.134Z,98.52
2022-12-31T01:01:01.297Z,98.82
2022-12-31T01:02:01.223Z,98.82
2022-12-31T01:03:01.175Z,98.93
2022-12-31T01:04:01.105Z,98.41
2022-12-31T01:05:01.083Z,98.52
2022-12-31T01:06:01.073Z,99.02
2022-12-31T01:07:01.087Z,98.52
2022-12-31T01:08:01.066Z,98.52
2022-12-31T01:09:01.051Z,98.61
2022-12-31T01:10:01.035Z,98.66
2022-12-31T01:11:01.034Z,99.43
2022-12-31T01:12:01.030Z,99.54
2022-12-31T01:13:01.027Z,99.33
2022-12-31T01:14:01.010Z,99.13
2022-12-31T01:15:00.988Z,99.23
2022-12-31T01:16:01.054Z,99.23
2022-12-31T01:17:01.001Z,98.93
2022-12-31T01:18:00.964Z,99.13
2022-12-31T01:19:00.940Z,99.02
2022-12-31T01:20:00.936Z,98.93
2022-12-31T01:21:00.932Z,99.13
2022-12-31T01:22:00.928Z,99.54
2022-12-31T01:23:01.745Z,99.54
2022-12-31T01:24:00.901Z,98.93
2022-12-31T01:25:00.886Z,99.02
2022-12-31T01:26:00.877Z,98.98
2022-12-31T01:27:00.910Z,99.13
2022-12-31T01:28:00.858Z,99.02
2022-12-31T01:29:00.855Z,99.02
2022-12-31T01:30:00.836Z,99.18
2022-12-31T01:31:00.832Z,99.54
2022-12-31T01:32:00.817Z,99.49
2022-12-31T01:33:00.830Z,99.39
2022-12-31T01:34:00.796Z,99.54
2022-12-31T01:35:00.803Z,99.39
2022-12-31T01:36:00.819Z,99.69
2022-12-31T01:37:01.787Z,99.49
2022-12-31T01:38:00.760Z,99.64
2022-12-31T01:39:00.771Z,99.39
2022-12-31T01:40:00.734Z,99.39
2022-12-31T01:41:00.724Z,99.59
2022-12-31T01:42:00.722Z,99.39
2022-12-31T01:43:00.729Z,99.49
2022-12-31T01:44:00.691Z,99.49
2022-12-31T01:45:00.700Z,99.18
2022-12-31T01:46:00.756Z,99.99
2022-12-31T01:47:00.667Z,99.99
2022-12-31T01:48:00.698Z,99.99
2022-12-31T01:49:00.662Z,99.99
2022-12-31T01:50:00.628Z,99.99
2022-12-31T01:51:00.619Z,99.99
2022-12-31T01:52:00.615Z,99.84
2022-12-31T01:53:00.633Z,99.99
2022-12-31T01:54:00.583Z,99.99
2022-12-31T01:55:00.598Z,99.99
2022-12-31T01:56:00.600Z,99.99
2022-12-31T01:57:00.557Z,99.99
2022-12-31T01:58:00.565Z,99.99
2022-12-31T01:59:00.540Z,99.99
2022-12-31T02:00:00.531Z,99.99
2022-12-31T02:01:00.561Z,99.79
2022-12-31T02:02:00.620Z,99.90
2022-12-31T02:03:00.573Z,99.99
2022-12-31T02:04:00.491Z,99.99
2022-12-31T02:05:00.479Z,99.99
2022-12-31T02:06:00.458Z,99.90
2022-12-31T02:07:00.460Z,99.99
2022-12-31T02:08:00.480Z,99.99
2022-12-31T02:09:00.446Z,99.99
2022-12-31T02:10:00.423Z,99.99
2022-12-31T02:11:00.430Z,99.99
2022-12-31T02:12:00.426Z,99.99
2022-12-31T02:13:00.426Z,99.99
2022-12-31T02:14:00.399Z,99.99
2022-12-31T02:15:00.378Z,99.99
2022-12-31T02:16:00.444Z,99.99
2022-12-31T02:17:00.359Z,99.99
2022-12-31T02:18:00.378Z,99.99
2022-12-31T02:19:00.351Z,99.99
2022-12-31T02:20:00.333Z,99.99
2022-12-31T02:21:00.331Z,99.99
2022-12-31T02:22:00.311Z,99.99
2022-12-31T02:23:00.332Z,99.99
2022-12-31T02:24:00.291Z,99.99
2022-12-31T02:25:00.284Z,99.99
2022-12-31T02:26:00.319Z,99.99
2022-12-31T02:27:00.260Z,99.99
2022-12-31T02:28:00.278Z,99.99
2022-12-31T02:29:00.243Z,99.99
2022-12-31T02:30:00.244Z,99.99
2022-12-31T02:31:00.255Z,99.99
2022-12-31T02:32:00.217Z,99.99
2022-12-31T02:33:02.611Z,99.99
2022-12-31T02:34:00.194Z,99.99
2022-12-31T02:35:00.184Z,99.99
2022-12-31T02:36:00.175Z,99.99
2022-12-31T02:37:00.163Z,99.99
2022-12-31T02:38:00.196Z,99.99
2022-12-31T02:39:00.135Z,99.99
2022-12-31T02:40:00.145Z,99.99
2022-12-31T02:41:00.120Z,99.99
2022-12-31T02:42:00.131Z,99.99
2022-12-31T02:43:00.139Z,99.99
2022-12-31T02:44:00.119Z,99.99
2022-12-31T02:45:00.108Z,99.99
2022-12-31T02:46:00.099Z,99.99
2022-12-31T02:47:00.048Z,99.99
2022-12-31T02:48:00.095Z,99.99
2022-12-31T02:49:00.063Z,99.99
2022-12-31T02:50:00.030Z,99.99
2022-12-31T02:51:00.020Z,99.99
2022-12-31T02:52:00.031Z,99.99
2022-12-31T02:53:00.041Z,99.99
2022-12-31T02:54:00.011Z,99.99
2022-12-31T02:54:59.976Z,99.99
2022-12-31T02:55:59.984Z,99.99
2022-12-31T02:56:59.967Z,99.99
2022-12-31T02:57:59.971Z,99.99
2022-12-31T02:58:59.943Z,99.99
2022-12-31T02:59:59.936Z,99.99
2022-12-31T03:00:59.986Z,99.99
2022-12-31T03:02:00.010Z,99.99
2022-12-31T03:02:59.914Z,99.99
2022-12-31T03:03:59.893Z,99.99
2022-12-31T03:04:59.879Z,99.99
2022-12-31T03:05:59.869Z,99.99
2022-12-31T03:06:59.853Z,99.99
2022-12-31T03:07:59.879Z,99.99
2022-12-31T03:08:59.840Z,99.99
2022-12-31T03:09:59.838Z,99.99
2022-12-31T03:10:59.824Z,99.99
2022-12-31T03:11:59.816Z,99.99
2022-12-31T03:12:59.832Z,99.99
2022-12-31T03:13:59.789Z,99.99
2022-12-31T03:14:59.789Z,99.99
2022-12-31T03:15:59.799Z,99.99
2022-12-31T03:16:59.826Z,99.99
2022-12-31T03:17:59.768Z,99.99
2022-12-31T03:18:59.739Z,99.99
2022-12-31T03:19:59.729Z,99.99
2022-12-31T03:20:59.724Z,99.99
2022-12-31T03:21:59.712Z,99.80
2022-12-31T03:22:59.722Z,99.99
2022-12-31T03:23:59.685Z,99.99
2022-12-31T03:24:59.679Z,99.99
2022-12-31T03:25:59.673Z,99.76
2022-12-31T03:26:59.656Z,99.99
2022-12-31T03:27:59.677Z,99.99
2022-12-31T03:28:59.637Z,99.99
2022-12-31T03:30:00.640Z,99.35
2022-12-31T03:30:59.681Z,99.66
2022-12-31T03:31:59.607Z,99.55
2022-12-31T03:32:59.618Z,99.25
2022-12-31T03:33:59.585Z,99.35
2022-12-31T03:34:59.572Z,98.94
2022-12-31T03:35:59.563Z,99.15
2022-12-31T03:36:59.568Z,98.69
2022-12-31T03:37:59.561Z,98.69
2022-12-31T03:38:59.542Z,98.39
2022-12-31T03:39:59.527Z,98.69
2022-12-31T03:40:59.519Z,97.78
2022-12-31T03:41:59.506Z,97.67
2022-12-31T03:42:59.519Z,97.57
2022-12-31T03:43:59.490Z,97.27
2022-12-31T03:44:59.472Z,97.16
2022-12-31T03:45:59.525Z,96.96
2022-12-31T03:46:59.453Z,96.71
2022-12-31T03:47:59.467Z,96.61
2022-12-31T03:48:59.438Z,96.25
2022-12-31T03:49:59.424Z,96.41
2022-12-31T03:50:59.417Z,96.00
2022-12-31T03:51:59.404Z,95.59
2022-12-31T03:52:59.435Z,95.90
2022-12-31T03:53:59.378Z,95.79
2022-12-31T03:54:59.386Z,95.39
2022-12-31T03:55:59.386Z,95.39
2022-12-31T03:57:00.375Z,95.39
2022-12-31T03:58:00.370Z,95.29
2022-12-31T03:58:59.337Z,95.24
2022-12-31T03:59:59.334Z,94.47
2022-12-31T04:00:59.472Z,94.88
2022-12-31T04:01:59.426Z,94.57
2022-12-31T04:02:59.398Z,94.63
2022-12-31T04:03:59.291Z,94.02
2022-12-31T04:04:59.281Z,94.32
2022-12-31T04:05:59.262Z,94.37
2022-12-31T04:06:59.251Z,94.37
2022-12-31T04:07:59.266Z,94.02
2022-12-31T04:08:59.236Z,94.07
2022-12-31T04:09:59.220Z,94.47
2022-12-31T04:10:59.220Z,94.37
2022-12-31T04:11:59.209Z,93.92
2022-12-31T04:12:59.230Z,94.37
2022-12-31T04:13:59.193Z,93.86
2022-12-31T04:14:59.181Z,94.02
2022-12-31T04:15:59.222Z,94.07
2022-12-31T04:16:59.165Z,94.17
2022-12-31T04:17:59.156Z,94.47
2022-12-31T04:18:59.143Z,94.57
2022-12-31T04:19:59.132Z,94.57
2022-12-31T04:20:59.116Z,94.68
2022-12-31T04:21:59.107Z,94.27
2022-12-31T04:22:59.116Z,94.57
2022-12-31T04:23:59.086Z,94.12
2022-12-31T04:24:59.071Z,94.27
2022-12-31T04:25:59.063Z,94.07
2022-12-31T04:27:05.396Z,94.37
2022-12-31T04:28:01.066Z,94.23
2022-12-31T04:28:59.036Z,94.37
2022-12-31T04:29:59.019Z,94.02
2022-12-31T04:30:59.014Z,94.12
2022-12-31T04:31:59.033Z,94.12
2022-12-31T04:32:59.014Z,93.92
2022-12-31T04:33:58.986Z,93.71
2022-12-31T04:34:58.970Z,94.02
2022-12-31T04:35:58.968Z,93.92
2022-12-31T04:36:58.952Z,93.71
2022-12-31T04:37:58.961Z,93.71
2022-12-31T04:38:58.936Z,93.82
2022-12-31T04:40:05.176Z,93.71
2022-12-31T04:41:00.913Z,93.10
2022-12-31T04:41:58.920Z,93.10
2022-12-31T04:42:58.917Z,93.06
2022-12-31T04:43:58.899Z,93.31
2022-12-31T04:44:58.895Z,93.31
2022-12-31T04:45:58.920Z,93.21
2022-12-31T04:46:58.857Z,93.47
2022-12-31T04:47:58.860Z,93.01
2022-12-31T04:48:58.830Z,93.01
2022-12-31T04:49:58.830Z,93.01
2022-12-31T04:50:58.814Z,93.10
2022-12-31T04:51:58.804Z,93.10
2022-12-31T04:52:58.812Z,93.10
2022-12-31T04:53:58.779Z,93.01
2022-12-31T04:54:58.773Z,93.21
2022-12-31T04:55:58.768Z,93.10
2022-12-31T04:56:58.762Z,93.01
2022-12-31T04:57:58.746Z,93.41
2022-12-31T04:58:58.750Z,93.51
2022-12-31T04:59:58.727Z,92.70
2022-12-31T05:00:58.898Z,93.21
2022-12-31T05:01:58.859Z,93.51
2022-12-31T05:02:58.774Z,93.31
2022-12-31T05:03:58.710Z,93.21
2022-12-31T05:04:58.679Z,93.31
2022-12-31T05:05:58.668Z,93.41
2022-12-31T05:06:58.649Z,93.01
2022-12-31T05:07:58.648Z,93.82
2022-12-31T05:08:58.663Z,93.71
2022-12-31T05:09:58.610Z,93.82
2022-12-31T05:10:58.619Z,93.82
2022-12-31T05:11:58.616Z,93.82
2022-12-31T05:12:58.600Z,94.23
2022-12-31T05:13:58.613Z,93.92
2022-12-31T05:14:58.581Z,93.82
2022-12-31T05:15:58.572Z,94.12
2022-12-31T05:16:58.593Z,93.92
2022-12-31T05:17:58.553Z,94.73
2022-12-31T05:18:58.570Z,94.43
2022-12-31T05:19:58.536Z,94.53
2022-12-31T05:20:58.528Z,94.63
2022-12-31T05:21:58.511Z,94.84
2022-12-31T05:22:58.500Z,94.23
2022-12-31T05:23:58.514Z,94.57
2022-12-31T05:24:58.487Z,95.24
2022-12-31T05:25:58.475Z,95.54
2022-12-31T05:26:58.465Z,95.34
2022-12-31T05:27:58.449Z,95.69
2022-12-31T05:28:58.464Z,95.34
2022-12-31T05:29:58.438Z,95.45
2022-12-31T05:30:58.481Z,95.69
2022-12-31T05:31:58.423Z,95.90
2022-12-31T05:32:58.495Z,95.54
2022-12-31T05:33:58.407Z,95.90
2022-12-31T05:34:58.385Z,95.79
2022-12-31T05:35:58.382Z,95.75
2022-12-31T05:36:58.367Z,95.34
2022-12-31T05:37:58.347Z,95.14
2022-12-31T05:38:58.368Z,95.34
2022-12-31T05:39:58.343Z,95.34
2022-12-31T05:40:58.328Z,95.65
2022-12-31T05:41:58.318Z,95.24
2022-12-31T05:42:58.310Z,95.14
2022-12-31T05:43:58.318Z,94.53
2022-12-31T05:44:58.308Z,94.93
2022-12-31T05:45:58.285Z,94.84
2022-12-31T05:46:58.266Z,94.93
2022-12-31T05:47:58.271Z,94.73
2022-12-31T05:48:58.264Z,94.73
2022-12-31T05:49:58.232Z,94.84
2022-12-31T05:50:58.230Z,94.69
2022-12-31T05:51:58.220Z,94.73
2022-12-31T05:52:58.209Z,94.63
2022-12-31T05:53:58.215Z,94.59
2022-12-31T05:54:58.188Z,94.73
2022-12-31T05:55:58.179Z,94.63
2022-12-31T05:56:58.164Z,94.48
2022-12-31T05:57:58.144Z,94.63
2022-12-31T05:58:58.160Z,94.59
2022-12-31T05:59:58.138Z,94.53
2022-12-31T06:00:58.155Z,94.48
2022-12-31T06:01:58.136Z,94.53
2022-12-31T06:02:58.195Z,94.59
2022-12-31T06:03:58.178Z,94.53
2022-12-31T06:04:58.096Z,94.38
2022-12-31T06:05:58.096Z,93.92
2022-12-31T06:06:58.092Z,94.23
2022-12-31T06:07:58.057Z,94.18
2022-12-31T06:08:58.109Z,93.62
2022-12-31T06:09:58.048Z,94.18
2022-12-31T06:10:58.028Z,93.87
2022-12-31T06:11:58.038Z,93.47
2022-12-31T06:12:58.014Z,93.98
2022-12-31T06:13:58.016Z,93.98
2022-12-31T06:14:57.997Z,93.87
2022-12-31T06:15:58.047Z,94.08
2022-12-31T06:16:57.977Z,93.87
2022-12-31T06:17:57.962Z,94.08
2022-12-31T06:18:57.969Z,94.08
2022-12-31T06:19:57.949Z,93.87
2022-12-31T06:20:57.926Z,93.57
2022-12-31T06:21:57.942Z,94.18
2022-12-31T06:22:57.919Z,93.77
2022-12-31T06:23:57.926Z,93.82
2022-12-31T06:24:57.886Z,93.57
2022-12-31T06:25:57.886Z,93.47
2022-12-31T06:26:57.875Z,93.77
2022-12-31T06:27:57.863Z,93.87
2022-12-31T06:28:57.891Z,93.87
2022-12-31T06:29:57.841Z,93.26
2022-12-31T06:30:57.827Z,93.06
2022-12-31T06:31:57.866Z,92.96
2022-12-31T06:32:57.812Z,92.86
2022-12-31T06:33:57.816Z,93.32
2022-12-31T06:34:58.787Z,93.22
2022-12-31T06:35:57.800Z,93.22
2022-12-31T06:36:57.779Z,93.47
2022-12-31T06:37:57.765Z,93.43
2022-12-31T06:39:01.267Z,93.22
2022-12-31T06:40:29.650Z,93.43
2022-12-31T06:40:57.737Z,93.26
2022-12-31T06:41:57.728Z,93.32
2022-12-31T06:43:00.124Z,93.32
2022-12-31T06:43:58.731Z,93.22
2022-12-31T06:44:57.694Z,93.52
2022-12-31T06:45:57.680Z,92.30
2022-12-31T06:46:57.685Z,92.41
2022-12-31T06:47:57.666Z,92.21
2022-12-31T06:48:57.674Z,92.10
2022-12-31T06:49:57.664Z,92.00
2022-12-31T06:50:57.636Z,91.90
2022-12-31T06:51:57.634Z,92.10
2022-12-31T06:52:57.617Z,91.39
2022-12-31T06:53:57.621Z,91.90
2022-12-31T06:54:57.612Z,91.69
2022-12-31T06:55:57.590Z,91.60
2022-12-31T06:56:57.585Z,91.25
2022-12-31T06:57:57.566Z,91.39
2022-12-31T06:58:57.582Z,90.84
2022-12-31T06:59:57.547Z,91.25
2022-12-31T07:00:57.540Z,91.25
2022-12-31T07:01:57.613Z,91.69
2022-12-31T07:02:57.568Z,91.65
2022-12-31T07:03:57.550Z,90.64
2022-12-31T07:04:57.508Z,90.94
2022-12-31T07:05:57.499Z,90.74
2022-12-31T07:06:57.501Z,90.94
2022-12-31T07:07:57.481Z,90.84
2022-12-31T07:08:57.498Z,90.74
2022-12-31T07:09:57.460Z,90.78
2022-12-31T07:10:57.448Z,90.74
2022-12-31T07:11:57.443Z,90.44
2022-12-31T07:12:57.424Z,91.14
2022-12-31T07:13:57.435Z,90.74
2022-12-31T07:14:57.409Z,90.74
2022-12-31T07:15:57.427Z,91.05
2022-12-31T07:16:57.389Z,90.74
2022-12-31T07:17:57.364Z,90.64
2022-12-31T07:18:57.393Z,90.64
2022-12-31T07:19:57.956Z,90.53
2022-12-31T07:20:58.352Z,90.84
2022-12-31T07:21:57.329Z,90.33
2022-12-31T07:22:57.331Z,90.03
2022-12-31T07:23:57.356Z,90.23
2022-12-31T07:24:57.312Z,90.33
2022-12-31T07:25:57.308Z,89.98
2022-12-31T07:26:57.326Z,90.53
2022-12-31T07:27:57.284Z,89.98
2022-12-31T07:28:57.298Z,90.39
2022-12-31T07:29:57.269Z,89.68
2022-12-31T07:30:57.259Z,89.88
2022-12-31T07:31:57.238Z,89.58
2022-12-31T07:32:57.241Z,89.58
2022-12-31T07:33:57.245Z,89.68
2022-12-31T07:34:57.216Z,89.78
2022-12-31T07:35:57.201Z,89.78
2022-12-31T07:36:57.197Z,89.58
2022-12-31T07:37:57.176Z,89.58
2022-12-31T07:38:57.185Z,89.58
2022-12-31T07:39:58.162Z,89.58
2022-12-31T07:40:58.003Z,89.37
2022-12-31T07:41:58.149Z,89.58
2022-12-31T07:42:57.142Z,89.37
2022-12-31T07:43:57.156Z,89.68
2022-12-31T07:44:57.122Z,89.68
2022-12-31T07:45:57.097Z,89.58
2022-12-31T07:46:57.167Z,89.78
2022-12-31T07:48:02.268Z,89.74
2022-12-31T07:48:59.101Z,89.78
2022-12-31T07:49:57.060Z,89.74
2022-12-31T07:50:57.065Z,89.58
2022-12-31T07:51:57.051Z,90.29
2022-12-31T07:52:57.047Z,90.29
2022-12-31T07:53:57.054Z,90.19
2022-12-31T07:54:57.020Z,90.49
2022-12-31T07:55:57.014Z,90.59
2022-12-31T07:56:57.073Z,90.70
2022-12-31T07:57:57.986Z,91.41
2022-12-31T07:58:56.988Z,91.71
2022-12-31T07:59:56.989Z,91.51
2022-12-31T08:00:57.004Z,91.71
2022-12-31T08:01:57.093Z,91.51
2022-12-31T08:02:56.975Z,91.30
2022-12-31T08:03:56.943Z,91.20
2022-12-31T08:04:56.947Z,90.90
2022-12-31T08:05:56.915Z,91.51
2022-12-31T08:06:56.910Z,91.20
2022-12-31T08:07:56.898Z,90.70
2022-12-31T08:08:56.879Z,90.45
2022-12-31T08:09:56.888Z,90.59
2022-12-31T08:10:56.879Z,90.45
2022-12-31T08:11:56.858Z,90.45
2022-12-31T08:12:56.848Z,90.14
2022-12-31T08:13:56.824Z,90.14
2022-12-31T08:14:56.859Z,89.98
2022-12-31T08:15:56.898Z,90.45
2022-12-31T08:16:56.813Z,90.45
2022-12-31T08:17:56.801Z,90.45
2022-12-31T08:18:56.793Z,90.09
2022-12-31T08:19:56.800Z,90.25
2022-12-31T08:20:56.767Z,90.25
2022-12-31T08:21:56.752Z,89.43
2022-12-31T08:22:56.752Z,89.43
2022-12-31T08:23:56.745Z,89.64
2022-12-31T08:24:56.745Z,89.78
2022-12-31T08:25:56.714Z,89.84
2022-12-31T08:26:56.714Z,89.74
2022-12-31T08:27:56.705Z,89.43
2022-12-31T08:28:56.692Z,89.13
2022-12-31T08:29:56.687Z,89.03
2022-12-31T08:30:56.676Z,89.13
2022-12-31T08:31:56.738Z,89.13
2022-12-31T08:32:56.642Z,88.52
2022-12-31T08:33:59.484Z,88.93
2022-12-31T08:34:58.651Z,88.93
2022-12-31T08:35:56.623Z,88.42
2022-12-31T08:36:56.705Z,88.38
2022-12-31T08:37:56.616Z,88.48
2022-12-31T08:38:56.613Z,88.18
2022-12-31T08:39:56.632Z,88.07
2022-12-31T08:40:56.572Z,87.67
2022-12-31T08:41:56.583Z,87.57
2022-12-31T08:42:56.594Z,87.26
2022-12-31T08:43:56.564Z,87.43
2022-12-31T08:44:56.595Z,86.61
2022-12-31T08:45:56.581Z,87.12
2022-12-31T08:46:56.524Z,86.51
2022-12-31T08:47:59.868Z,86.71
2022-12-31T08:48:57.527Z,85.90
2022-12-31T08:49:56.490Z,86.21
2022-12-31T08:50:56.491Z,86.10
2022-12-31T08:51:56.474Z,86.07
2022-12-31T08:52:56.469Z,85.96
2022-12-31T08:53:56.453Z,86.00
2022-12-31T08:54:56.472Z,85.25
2022-12-31T08:55:56.460Z,85.25
2022-12-31T08:56:56.427Z,84.85
2022-12-31T08:57:56.397Z,84.30
2022-12-31T08:58:56.409Z,84.55
2022-12-31T08:59:56.465Z,84.10
2022-12-31T09:00:56.500Z,84.41
2022-12-31T09:01:56.454Z,84.50
2022-12-31T09:02:56.362Z,84.30
2022-12-31T09:03:56.380Z,84.00
2022-12-31T09:04:56.359Z,84.20
2022-12-31T09:05:56.337Z,84.20
2022-12-31T09:06:56.331Z,84.00
2022-12-31T09:07:56.329Z,84.20
2022-12-31T09:08:56.329Z,84.30
2022-12-31T09:09:56.307Z,84.30
2022-12-31T09:10:56.291Z,84.00
2022-12-31T09:11:56.277Z,84.41
2022-12-31T09:12:56.277Z,84.41
2022-12-31T09:13:56.290Z,84.20
2022-12-31T09:14:56.271Z,84.20
2022-12-31T09:15:56.253Z,84.00
2022-12-31T09:16:56.249Z,84.44
2022-12-31T09:17:56.213Z,84.20
2022-12-31T09:18:56.212Z,84.24
2022-12-31T09:19:56.236Z,84.20
2022-12-31T09:20:56.196Z,83.90
2022-12-31T09:21:56.172Z,84.10
2022-12-31T09:22:56.167Z,84.30
2022-12-31T09:23:57.166Z,84.41
2022-12-31T09:24:56.192Z,84.30
2022-12-31T09:25:56.152Z,84.30
2022-12-31T09:26:56.134Z,84.64
2022-12-31T09:27:56.124Z,84.75
2022-12-31T09:28:56.110Z,84.85
2022-12-31T09:29:56.115Z,85.46
2022-12-31T09:30:56.089Z,85.36
2022-12-31T09:31:56.150Z,85.36
2022-12-31T09:33:00.833Z,85.56
2022-12-31T09:33:57.052Z,85.66
2022-12-31T09:34:56.075Z,85.56
2022-12-31T09:35:56.043Z,85.36
2022-12-31T09:36:56.036Z,85.25
2022-12-31T09:37:56.031Z,85.05
2022-12-31T09:38:56.016Z,85.56
2022-12-31T09:39:56.024Z,85.46
2022-12-31T09:40:55.995Z,85.96
2022-12-31T09:41:55.979Z,85.80
2022-12-31T09:42:55.971Z,85.86
2022-12-31T09:44:00.875Z,85.96
2022-12-31T09:44:56.963Z,85.86
2022-12-31T09:45:56.017Z,86.21
2022-12-31T09:46:55.944Z,86.37
2022-12-31T09:47:55.919Z,86.10
2022-12-31T09:48:55.906Z,86.00
2022-12-31T09:49:55.928Z,85.96
2022-12-31T09:50:55.887Z,86.21
2022-12-31T09:51:55.881Z,85.76
2022-12-31T09:52:55.888Z,85.46
2022-12-31T09:53:55.869Z,85.36
2022-12-31T09:54:55.874Z,85.66
2022-12-31T09:55:55.844Z,85.46
2022-12-31T09:56:59.191Z,85.36
2022-12-31T09:57:56.828Z,85.36
2022-12-31T09:58:55.819Z,85.39
2022-12-31T09:59:55.849Z,85.70
2022-12-31T10:00:55.831Z,85.66
2022-12-31T10:01:55.842Z,85.36
2022-12-31T10:02:55.782Z,85.36
2022-12-31T10:03:55.763Z,85.25
2022-12-31T10:04:55.776Z,85.56
2022-12-31T10:05:55.758Z,85.15
2022-12-31T10:06:55.733Z,85.86
2022-12-31T10:07:55.737Z,85.76
2022-12-31T10:08:55.700Z,85.96
2022-12-31T10:09:55.721Z,86.16
2022-12-31T10:10:55.694Z,86.27
2022-12-31T10:11:55.683Z,85.96
2022-12-31T10:12:55.668Z,86.47
2022-12-31T10:13:55.659Z,86.41
2022-12-31T10:14:55.681Z,86.37
2022-12-31T10:15:55.646Z,86.16
2022-12-31T10:16:55.652Z,86.68
2022-12-31T10:17:55.620Z,85.76
2022-12-31T10:18:55.616Z,86.16
2022-12-31T10:19:55.614Z,86.07
2022-12-31T10:20:55.588Z,86.07
2022-12-31T10:21:55.583Z,86.41
2022-12-31T10:22:55.578Z,86.27
2022-12-31T10:23:55.563Z,86.07
2022-12-31T10:24:55.572Z,86.00
2022-12-31T10:25:55.545Z,85.86
2022-12-31T10:26:55.544Z,85.46
2022-12-31T10:27:55.534Z,85.66
2022-12-31T10:28:55.502Z,85.36
2022-12-31T10:29:55.535Z,85.46
2022-12-31T10:30:55.504Z,85.36
2022-12-31T10:31:55.483Z,85.46
2022-12-31T10:32:55.468Z,85.66
2022-12-31T10:33:55.458Z,85.46
2022-12-31T10:34:55.496Z,85.36
2022-12-31T10:35:55.442Z,85.05
2022-12-31T10:36:55.432Z,84.75
2022-12-31T10:37:55.425Z,84.75
2022-12-31T10:38:55.442Z,84.75
2022-12-31T10:39:55.450Z,85.15
2022-12-31T10:40:55.382Z,85.05
2022-12-31T10:41:55.383Z,85.15
2022-12-31T10:42:55.361Z,85.25
2022-12-31T10:43:56.361Z,84.75
2022-12-31T10:44:55.372Z,84.95
2022-12-31T10:45:55.359Z,84.95
2022-12-31T10:46:55.335Z,84.75
2022-12-31T10:47:55.325Z,85.05
2022-12-31T10:48:55.320Z,84.64
2022-12-31T10:49:55.319Z,84.95
2022-12-31T10:50:55.311Z,84.61
2022-12-31T10:51:55.283Z,84.55
2022-12-31T10:52:55.272Z,84.20
2022-12-31T10:53:55.269Z,84.30
2022-12-31T10:54:55.273Z,84.30
2022-12-31T10:55:55.239Z,84.20
2022-12-31T10:56:55.235Z,84.50
2022-12-31T10:57:58.709Z,83.39
2022-12-31T10:58:57.225Z,82.95
2022-12-31T10:59:55.238Z,82.95
2022-12-31T11:00:55.202Z,82.64
2022-12-31T11:01:55.229Z,82.64
2022-12-31T11:02:55.235Z,82.84
2022-12-31T11:03:55.175Z,82.84
2022-12-31T11:04:55.178Z,83.15
2022-12-31T11:05:55.129Z,83.04
2022-12-31T11:06:55.133Z,82.34
2022-12-31T11:07:55.136Z,82.54
2022-12-31T11:08:55.120Z,82.20
2022-12-31T11:09:55.113Z,81.90
2022-12-31T11:10:55.102Z,81.39
2022-12-31T11:11:55.082Z,81.99
2022-12-31T11:12:55.074Z,82.10
2022-12-31T11:13:55.059Z,81.49
2022-12-31T11:14:55.079Z,80.74
2022-12-31T11:15:55.107Z,81.39
2022-12-31T11:16:55.040Z,80.64
2022-12-31T11:17:55.013Z,80.54
2022-12-31T11:18:55.018Z,80.64
2022-12-31T11:19:55.005Z,81.05
2022-12-31T11:20:55.020Z,81.05
2022-12-31T11:21:54.973Z,80.64
2022-12-31T11:22:54.973Z,80.84
2022-12-31T11:23:54.969Z,80.91
2022-12-31T11:24:54.980Z,80.24
2022-12-31T11:25:54.931Z,80.24
2022-12-31T11:26:54.942Z,79.49
2022-12-31T11:27:54.919Z,79.79
2022-12-31T11:28:54.927Z,79.69
2022-12-31T11:29:54.896Z,79.19
2022-12-31T11:30:54.956Z,79.29
2022-12-31T11:31:54.885Z,78.78
2022-12-31T11:32:54.906Z,78.38
2022-12-31T11:33:54.856Z,78.24
2022-12-31T11:34:54.876Z,77.94
2022-12-31T11:35:54.859Z,77.64
2022-12-31T11:36:54.844Z,77.53
2022-12-31T11:37:54.818Z,77.43
2022-12-31T11:38:54.826Z,76.48
2022-12-31T11:39:54.809Z,76.48
2022-12-31T11:40:54.825Z,75.78
2022-12-31T11:41:54.777Z,75.57
2022-12-31T11:42:54.770Z,75.44
2022-12-31T11:43:54.770Z,75.24
2022-12-31T11:44:54.780Z,75.57
2022-12-31T11:45:54.751Z,75.13
2022-12-31T11:46:54.739Z,75.34
2022-12-31T11:48:29.005Z,74.93
2022-12-31T11:48:56.738Z,74.73
2022-12-31T11:49:54.708Z,74.93
2022-12-31T11:50:54.716Z,74.53
2022-12-31T11:51:54.690Z,74.63
2022-12-31T11:52:54.688Z,74.73
2022-12-31T11:53:54.657Z,74.84
2022-12-31T11:54:55.678Z,74.84
2022-12-31T11:55:54.650Z,74.02
2022-12-31T11:56:54.638Z,74.13
2022-12-31T11:57:54.620Z,73.99
2022-12-31T11:58:54.618Z,74.33
2022-12-31T11:59:54.607Z,74.49
2022-12-31T12:00:54.620Z,74.43
2022-12-31T12:01:54.595Z,74.53
2022-12-31T12:02:54.625Z,74.40
2022-12-31T12:03:54.597Z,73.99
2022-12-31T12:04:54.582Z,74.09
2022-12-31T12:05:54.530Z,74.40
2022-12-31T12:06:54.537Z,73.72
2022-12-31T12:07:54.526Z,74.40
2022-12-31T12:08:54.522Z,74.29
2022-12-31T12:09:54.520Z,74.40
2022-12-31T12:10:54.520Z,73.79
2022-12-31T12:11:54.480Z,73.79
2022-12-31T12:12:54.481Z,74.29
2022-12-31T12:13:54.456Z,73.79
2022-12-31T12:14:54.472Z,74.43
2022-12-31T12:15:55.486Z,74.43
2022-12-31T12:16:57.873Z,74.22
2022-12-31T12:17:54.417Z,74.73
2022-12-31T12:18:54.415Z,74.84
2022-12-31T12:19:54.410Z,74.53
2022-12-31T12:20:54.412Z,75.04
2022-12-31T12:21:54.375Z,75.13
2022-12-31T12:22:54.372Z,75.34
2022-12-31T12:23:54.357Z,75.34
2022-12-31T12:24:54.430Z,75.84
2022-12-31T12:25:54.335Z,75.88
2022-12-31T12:26:54.336Z,76.28
2022-12-31T12:27:54.327Z,76.39
2022-12-31T12:28:54.307Z,76.18
2022-12-31T12:29:54.287Z,76.39
2022-12-31T12:30:54.310Z,76.18
2022-12-31T12:31:54.281Z,76.59
2022-12-31T12:32:54.276Z,76.69
2022-12-31T12:33:54.268Z,76.69
2022-12-31T12:34:54.286Z,76.12
2022-12-31T12:35:54.242Z,76.28
2022-12-31T12:36:54.234Z,76.59
2022-12-31T12:37:54.217Z,76.39
2022-12-31T12:38:54.212Z,76.28
2022-12-31T12:40:33.902Z,75.98
2022-12-31T12:40:55.187Z,75.17
2022-12-31T12:41:54.185Z,75.44
2022-12-31T12:42:54.172Z,75.13
2022-12-31T12:43:54.169Z,75.07
2022-12-31T12:44:54.149Z,74.84
2022-12-31T12:45:54.170Z,74.84
2022-12-31T12:46:54.201Z,74.53
2022-12-31T12:47:54.128Z,74.84
2022-12-31T12:48:54.114Z,74.22
2022-12-31T12:49:54.109Z,74.13
2022-12-31T12:50:54.112Z,74.43
2022-12-31T12:51:54.083Z,73.82